createdAt,value
2023-03-06T08:08:07.406Z,68.79
2023-03-06T08:10:34.939Z,68.79
2023-03-06T08:13:01.785Z,68.12
2023-03-06T08:15:28.819Z,68.08
2023-03-06T08:17:55.773Z,67.63
2023-03-06T08:20:22.537Z,68.06
2023-03-06T08:22:49.256Z,68.51
2023-03-06T08:25:16.222Z,67.95
2023-03-06T08:27:43.399Z,68.84
2023-03-06T08:30:10.645Z,69.29
2023-03-06T08:32:38.012Z,69.85
2023-03-06T08:35:05.682Z,70.73
2023-03-06T08:37:32.478Z,70.82
2023-03-06T08:39:59.559Z,69.44
2023-03-06T08:42:26.425Z,69.01
2023-03-06T08:44:53.166Z,69.93
2023-03-06T08:47:21.419Z,69.60
2023-03-06T08:49:48.408Z,68.73
2023-03-06T08:52:17.195Z,68.00
2023-03-06T08:54:43.943Z,67.40
2023-03-06T08:57:10.745Z,66.33
2023-03-06T08:59:37.721Z,68.91
2023-03-06T09:02:05.635Z,66.13
2023-03-06T09:04:33.121Z,66.99
2023-03-06T09:07:00.545Z,65.04
2023-03-06T09:09:27.331Z,64.66
2023-03-06T09:11:54.891Z,63.62
2023-03-06T09:14:21.591Z,62.69
2023-03-06T09:16:48.293Z,62.15
2023-03-06T09:19:15.110Z,61.77
2023-03-06T09:21:41.873Z,61.49
2023-03-06T09:24:08.831Z,59.17
2023-03-06T09:26:45.728Z,56.65
2023-03-06T09:29:16.220Z,59.75
2023-03-06T09:31:43.513Z,59.24
2023-03-06T09:34:10.282Z,58.89
2023-03-06T09:36:53.414Z,59.37
2023-03-06T09:39:24.051Z,59.21
2023-03-06T09:41:51.075Z,59.36
2023-03-06T09:44:38.629Z,56.68
2023-03-06T09:47:17.588Z,55.21
2023-03-06T09:49:55.948Z,56.50
2023-03-06T09:52:37.481Z,53.93
2023-03-06T09:55:13.181Z,54.20
2023-03-06T09:57:45.535Z,56.09
2023-03-06T10:00:14.914Z,56.26
2023-03-06T10:02:48.302Z,55.38
2023-03-06T10:05:22.027Z,54.66
2023-03-06T10:08:01.410Z,54.98
2023-03-06T10:10:36.060Z,54.36
2023-03-06T10:13:28.441Z,55.67
2023-03-06T10:16:04.035Z,55.37
2023-03-06T10:18:31.788Z,56.67
2023-03-06T10:21:19.294Z,55.77
2023-03-06T10:23:55.014Z,55.80
2023-03-06T10:26:27.995Z,54.53
2023-03-06T10:29:36.747Z,54.42
2023-03-06T10:32:12.983Z,55.22
2023-03-06T10:34:40.699Z,54.48
2023-03-06T10:37:22.352Z,56.77
2023-03-06T10:39:57.689Z,56.29
2023-03-06T10:42:24.917Z,57.20
2023-03-06T10:45:11.990Z,57.48
2023-03-06T10:47:40.249Z,56.89
2023-03-06T10:50:22.223Z,56.10
2023-03-06T10:53:05.574Z,57.43
2023-03-06T10:55:37.853Z,57.58
2023-03-06T10:58:19.465Z,57.88
2023-03-06T11:00:46.286Z,57.64
2023-03-06T11:03:23.807Z,58.55
2023-03-06T11:06:12.654Z,57.49
2023-03-06T11:08:41.035Z,58.64
2023-03-06T11:11:13.655Z,58.36
2023-03-06T11:13:42.999Z,58.20
2023-03-06T11:16:26.938Z,58.07
2023-03-06T11:19:01.272Z,58.17
2023-03-06T11:21:33.919Z,58.33
2023-03-06T11:24:12.441Z,57.60
2023-03-06T11:26:53.739Z,57.71
2023-03-06T11:29:34.901Z,57.01
2023-03-06T11:32:14.500Z,58.03
2023-03-06T11:35:06.414Z,58.35
2023-03-06T11:37:45.134Z,57.72
2023-03-06T11:40:11.945Z,57.41
2023-03-06T11:42:42.954Z,57.50
2023-03-06T11:45:23.070Z,57.26
2023-03-06T11:48:01.810Z,56.85
2023-03-06T11:50:28.465Z,56.20
2023-03-06T11:53:01.576Z,56.32
2023-03-06T11:55:37.266Z,56.16
2023-03-06T11:58:25.362Z,56.32
2023-03-06T12:01:00.890Z,56.88
2023-03-06T12:03:57.529Z,57.04
2023-03-06T12:06:34.060Z,56.56
2023-03-06T12:09:04.905Z,56.83
2023-03-06T12:11:40.635Z,57.86
2023-03-06T12:14:16.183Z,58.14
2023-03-06T12:17:07.690Z,59.61
2023-03-06T12:19:49.955Z,58.95
2023-03-06T12:22:32.184Z,59.67
2023-03-06T12:25:19.385Z,59.94
2023-03-06T12:27:48.891Z,59.91
2023-03-06T12:30:34.536Z,59.72
2023-03-06T12:33:10.360Z,60.02
2023-03-06T12:35:40.083Z,60.05
2023-03-06T12:38:30.040Z,59.95
2023-03-06T12:41:13.051Z,58.65
2023-03-06T12:44:00.978Z,60.99
2023-03-06T12:46:28.366Z,62.57
2023-03-06T12:48:57.862Z,60.69
2023-03-06T12:51:24.653Z,62.29
2023-03-06T12:53:51.615Z,61.71
2023-03-06T12:56:18.946Z,61.16
2023-03-06T12:58:49.674Z,61.98
2023-03-06T13:01:37.699Z,58.30
2023-03-06T13:04:05.096Z,59.56
2023-03-06T13:06:50.419Z,58.25
2023-03-06T13:09:22.644Z,63.71
2023-03-06T13:11:58.144Z,59.25
2023-03-06T13:14:45.125Z,60.77
2023-03-06T13:17:28.827Z,57.48
2023-03-06T13:20:35.595Z,57.34
2023-03-06T13:23:31.220Z,58.55
2023-03-06T13:26:02.116Z,58.69
2023-03-06T13:28:50.240Z,59.03
2023-03-06T13:31:54.870Z,59.55
2023-03-06T13:34:41.395Z,58.30
2023-03-06T13:37:17.007Z,59.04
2023-03-06T13:39:55.648Z,59.70
2023-03-06T13:42:56.601Z,59.82
2023-03-06T13:45:45.339Z,60.88
2023-03-06T13:48:47.821Z,60.43
2023-03-06T13:51:22.889Z,59.95
2023-03-06T13:54:04.216Z,60.50
2023-03-06T13:57:05.233Z,60.02
2023-03-06T13:59:42.641Z,60.46
2023-03-06T14:02:33.914Z,60.61
2023-03-06T14:05:02.560Z,60.67
2023-03-06T14:07:32.404Z,60.71
2023-03-06T14:10:09.744Z,60.92
2023-03-06T14:12:40.941Z,59.88
2023-03-06T14:15:41.535Z,61.54
2023-03-06T14:18:38.382Z,59.63
2023-03-06T14:21:08.919Z,59.65
2023-03-06T14:23:42.292Z,59.81
2023-03-06T14:26:15.182Z,60.36
2023-03-06T14:28:46.485Z,60.88
2023-03-06T14:31:18.920Z,60.60
2023-03-06T14:33:53.408Z,61.02
2023-03-06T14:36:23.493Z,61.81
2023-03-06T14:38:53.257Z,61.33
2023-03-06T14:41:28.912Z,61.57
2023-03-06T14:44:17.685Z,61.87
2023-03-06T14:46:49.088Z,61.95
2023-03-06T14:49:17.648Z,62.51
2023-03-06T14:51:47.861Z,62.00
2023-03-06T14:54:34.979Z,62.00
2023-03-06T14:57:06.030Z,63.12
2023-03-06T14:59:43.055Z,62.53
2023-03-06T15:02:12.693Z,62.57
2023-03-06T15:04:45.050Z,62.63
2023-03-06T15:07:15.705Z,62.69
2023-03-06T15:09:50.989Z,62.30
2023-03-06T15:12:20.762Z,62.31
2023-03-06T15:14:59.510Z,62.45
2023-03-06T15:17:38.179Z,62.79
2023-03-06T15:20:08.830Z,62.95
2023-03-06T15:22:40.689Z,62.95
2023-03-06T15:25:16.222Z,63.25
2023-03-06T15:27:49.135Z,63.60
2023-03-06T15:30:31.217Z,63.41
2023-03-06T15:33:19.478Z,63.64
2023-03-06T15:35:57.558Z,63.41
2023-03-06T15:38:30.272Z,63.68
2023-03-06T15:40:58.464Z,63.87
2023-03-06T15:43:25.303Z,64.73
2023-03-06T15:45:58.308Z,64.69
2023-03-06T15:48:25.074Z,64.52
2023-03-06T15:50:51.863Z,64.80
2023-03-06T15:53:20.321Z,64.52
2023-03-06T15:55:47.357Z,65.17
2023-03-06T15:58:17.204Z,65.00
2023-03-06T16:00:44.366Z,65.03
2023-03-06T16:03:11.809Z,65.84
2023-03-06T16:05:38.825Z,65.73
2023-03-06T16:08:06.414Z,65.49
2023-03-06T16:10:37.112Z,65.15
2023-03-06T16:13:21.099Z,65.26
2023-03-06T16:15:49.487Z,65.13
2023-03-06T16:18:16.858Z,65.05
2023-03-06T16:20:43.876Z,65.35
2023-03-06T16:23:10.716Z,64.98
2023-03-06T16:25:39.236Z,65.46
2023-03-06T16:28:08.667Z,65.55
2023-03-06T16:30:35.693Z,65.26
2023-03-06T16:33:03.492Z,65.57
2023-03-06T16:35:30.614Z,65.01
2023-03-06T16:37:57.488Z,65.59
2023-03-06T16:40:37.547Z,65.25
2023-03-06T16:43:05.121Z,65.40
2023-03-06T16:45:38.472Z,66.57
2023-03-06T16:48:06.042Z,67.46
2023-03-06T16:50:38.163Z,67.10
2023-03-06T16:53:05.865Z,67.25
2023-03-06T16:55:36.541Z,67.19
2023-03-06T16:58:03.618Z,66.92
2023-03-06T17:00:33.228Z,67.30
2023-03-06T17:03:01.388Z,67.06
2023-03-06T17:05:28.949Z,67.65
2023-03-06T17:07:56.312Z,67.77
2023-03-06T17:10:26.271Z,67.58
2023-03-06T17:12:54.021Z,67.10
2023-03-06T17:15:21.434Z,67.44
2023-03-06T17:17:48.694Z,67.40
2023-03-06T17:20:15.706Z,67.82
2023-03-06T17:22:42.494Z,67.88
2023-03-06T17:25:10.233Z,68.05
2023-03-06T17:27:37.719Z,68.04
2023-03-06T17:30:05.998Z,68.26
2023-03-06T17:32:32.902Z,68.09
2023-03-06T17:34:59.985Z,68.24
2023-03-06T17:37:26.889Z,68.39
2023-03-06T17:39:53.778Z,68.25
2023-03-06T17:42:20.631Z,68.33
2023-03-06T17:44:47.982Z,68.33
2023-03-06T17:47:14.794Z,68.06
2023-03-06T17:49:41.542Z,68.37
2023-03-06T17:52:08.302Z,67.84
2023-03-06T17:54:35.888Z,68.41
2023-03-06T17:57:04.482Z,68.21
2023-03-06T17:59:33.938Z,68.48
2023-03-06T18:02:01.081Z,68.60
2023-03-06T18:04:27.869Z,68.67
2023-03-06T18:06:54.642Z,68.73
2023-03-06T18:09:21.385Z,68.80
2023-03-06T18:11:48.038Z,69.13
2023-03-06T18:14:14.865Z,68.34
2023-03-06T18:16:41.710Z,68.21
2023-03-06T18:19:11.014Z,67.82
2023-03-06T18:21:39.114Z,67.71
2023-03-06T18:24:06.208Z,67.90
2023-03-06T18:26:32.935Z,67.43
2023-03-06T18:29:03.622Z,67.78
2023-03-06T18:31:34.574Z,66.93
2023-03-06T18:34:12.702Z,67.45
2023-03-06T18:36:40.519Z,66.88
2023-03-06T18:39:08.867Z,70.07
2023-03-06T18:41:36.351Z,69.09
2023-03-06T18:44:03.400Z,71.60
2023-03-06T18:46:35.212Z,70.90
2023-03-06T18:49:02.141Z,70.78
2023-03-06T18:51:28.901Z,70.68
2023-03-06T18:54:00.249Z,72.10
2023-03-06T18:56:27.250Z,70.78
2023-03-06T18:58:54.176Z,70.60
2023-03-06T19:01:22.356Z,70.10
2023-03-06T19:03:49.181Z,71.94
2023-03-06T19:06:17.062Z,72.03
2023-03-06T19:08:43.973Z,71.72
2023-03-06T19:11:15.402Z,72.43
2023-03-06T19:13:42.573Z,72.59
2023-03-06T19:16:31.407Z,72.42
2023-03-06T19:18:58.973Z,73.28
2023-03-06T19:21:26.836Z,74.59
2023-03-06T19:23:54.081Z,73.97
2023-03-06T19:26:20.988Z,74.08
2023-03-06T19:28:48.719Z,74.83
2023-03-06T19:31:21.410Z,75.02
2023-03-06T19:33:49.198Z,74.74
2023-03-06T19:36:17.236Z,74.21
2023-03-06T19:38:44.094Z,75.40
2023-03-06T19:41:13.681Z,75.38
2023-03-06T19:43:41.789Z,74.03
2023-03-06T19:46:15.004Z,73.57
2023-03-06T19:48:42.142Z,74.87
2023-03-06T19:51:09.380Z,74.75
2023-03-06T19:53:36.313Z,74.66
2023-03-06T19:56:07.334Z,74.98
2023-03-06T19:58:34.101Z,75.05
2023-03-06T20:01:08.874Z,75.55
2023-03-06T20:03:35.731Z,76.21
2023-03-06T20:06:06.215Z,74.53
2023-03-06T20:08:32.950Z,74.32
2023-03-06T20:10:59.706Z,75.08
2023-03-06T20:13:26.427Z,74.52
2023-03-06T20:15:53.281Z,74.89
2023-03-06T20:18:20.056Z,74.68
2023-03-06T20:20:57.555Z,74.66
2023-03-06T20:23:24.495Z,74.57
2023-03-06T20:25:51.222Z,75.27
2023-03-06T20:28:17.935Z,74.83
2023-03-06T20:30:44.699Z,74.89
2023-03-06T20:33:11.412Z,75.06
2023-03-06T20:35:42.489Z,75.65
2023-03-06T20:38:10.013Z,75.96
2023-03-06T20:40:38.355Z,75.56
2023-03-06T20:43:05.325Z,75.48
2023-03-06T20:45:32.118Z,75.13
2023-03-06T20:47:58.812Z,75.76
2023-03-06T20:50:26.255Z,75.92
2023-03-06T20:52:54.545Z,75.11
2023-03-06T20:55:21.384Z,75.63
2023-03-06T20:57:51.719Z,76.04
2023-03-06T21:00:19.048Z,75.77
2023-03-06T21:02:45.799Z,75.72
2023-03-06T21:05:12.859Z,75.74
2023-03-06T21:07:39.647Z,75.69
2023-03-06T21:10:07.212Z,75.95
2023-03-06T21:12:33.987Z,76.68
2023-03-06T21:15:00.821Z,76.91
2023-03-06T21:17:28.166Z,76.39
2023-03-06T21:19:54.894Z,76.07
2023-03-06T21:22:21.668Z,76.47
2023-03-06T21:24:48.400Z,76.24
2023-03-06T21:27:15.116Z,76.02
2023-03-06T21:29:41.878Z,76.08
2023-03-06T21:32:08.643Z,76.46
2023-03-06T21:34:35.411Z,76.60
2023-03-06T21:37:02.199Z,76.43
2023-03-06T21:39:28.946Z,76.84
2023-03-06T21:41:55.698Z,76.23
2023-03-06T21:44:22.436Z,76.39
2023-03-06T21:46:49.142Z,76.74
2023-03-06T21:49:15.875Z,76.57
2023-03-06T21:51:42.535Z,76.16
2023-03-06T21:54:09.757Z,75.83
2023-03-06T21:56:36.754Z,76.42
2023-03-06T21:59:03.451Z,76.37
2023-03-06T22:01:30.366Z,77.32
2023-03-06T22:03:58.695Z,77.54
2023-03-06T22:06:26.992Z,77.14
2023-03-06T22:08:57.813Z,77.04
2023-03-06T22:11:25.550Z,76.73
2023-03-06T22:13:55.706Z,77.10
2023-03-06T22:16:22.454Z,76.98
2023-03-06T22:18:50.866Z,77.68
2023-03-06T22:21:20.348Z,77.44
2023-03-06T22:23:57.198Z,77.29
2023-03-06T22:26:24.405Z,77.65
2023-03-06T22:28:51.182Z,77.09
2023-03-06T22:31:20.465Z,76.61
2023-03-06T22:33:51.196Z,76.65
2023-03-06T22:36:18.457Z,77.15
2023-03-06T22:38:46.144Z,76.81
2023-03-06T22:41:14.558Z,76.96
2023-03-06T22:43:41.679Z,76.91
2023-03-06T22:46:10.855Z,77.85
2023-03-06T22:48:37.636Z,77.36
2023-03-06T22:51:12.087Z,77.58
2023-03-06T22:53:39.146Z,77.37
2023-03-06T22:56:10.843Z,77.33
2023-03-06T22:58:37.704Z,77.66
2023-03-06T23:01:12.855Z,77.81
2023-03-06T23:03:41.928Z,77.85
2023-03-06T23:06:30.288Z,77.79
2023-03-06T23:09:08.716Z,77.45
2023-03-06T23:11:35.462Z,77.53
2023-03-06T23:14:03.296Z,77.66
2023-03-06T23:16:30.667Z,78.41
2023-03-06T23:18:57.487Z,78.20
2023-03-06T23:21:24.584Z,78.73
2023-03-06T23:23:53.839Z,79.16
2023-03-06T23:26:22.835Z,78.37
2023-03-06T23:28:49.629Z,78.87
2023-03-06T23:31:18.390Z,79.08
2023-03-06T23:33:45.139Z,79.03
2023-03-06T23:36:14.018Z,78.46
2023-03-06T23:38:41.168Z,78.38
2023-03-06T23:41:11.343Z,78.39
2023-03-06T23:43:38.226Z,79.00
2023-03-06T23:46:06.123Z,78.36
2023-03-06T23:48:33.826Z,79.13
2023-03-06T23:51:00.638Z,78.76
2023-03-06T23:53:27.377Z,79.35
2023-03-06T23:55:54.353Z,79.96
2023-03-06T23:58:21.059Z,80.36
